sensor_id;sensor_type;location;lat;lon;timestamp;pressure;altitude;pressure_sealevel;temperature;humidity
10720;BME280;5411;58.386;15.560;2022-12-07T00:01:42;99918.81;;;-4.14;100.00
10720;BME280;5411;58.386;15.560;2022-12-07T00:04:12;99914.53;;;-4.15;100.00
10720;BME280;5411;58.386;15.560;2022-12-07T00:06:42;99919.03;;;-4.17;100.00
10720;BME280;5411;58.386;15.560;2022-12-07T00:09:13;99923.66;;;-4.21;100.00
10720;BME280;5411;58.386;15.560;2022-12-07T00:11:43;99920.34;;;-4.23;100.00
10720;BME280;5411;58.386;15.560;2022-12-07T00:14:14;99921.66;;;-4.28;100.00
10720;BME280;5411;58.386;15.560;2022-12-07T00:16:43;99919.41;;;-4.33;100.00
10720;BME280;5411;58.386;15.560;2022-12-07T00:19:13;99914.53;;;-4.38;100.00
10720;BME280;5411;58.386;15.560;2022-12-07T00:21:41;99917.25;;;-4.39;100.00
10720;BME280;5411;58.386;15.560;2022-12-07T00:24:10;99911.34;;;-4.41;100.00
10720;BME280;5411;58.386;15.560;2022-12-07T00:26:40;99917.63;;;-4.44;100.00
10720;BME280;5411;58.386;15.560;2022-12-07T00:29:13;99902.41;;;-4.50;100.00
10720;BME280;5411;58.386;15.560;2022-12-07T00:31:42;99907.75;;;-4.51;100.00
10720;BME280;5411;58.386;15.560;2022-12-07T00:34:13;99912.28;;;-4.53;100.00
10720;BME280;5411;58.386;15.560;2022-12-07T00:36:42;99911.69;;;-4.57;100.00
10720;BME280;5411;58.386;15.560;2022-12-07T00:39:10;99910.03;;;-4.58;100.00
10720;BME280;5411;58.386;15.560;2022-12-07T00:41:38;99917.34;;;-4.63;100.00
10720;BME280;5411;58.386;15.560;2022-12-07T00:44:06;99914.19;;;-4.67;100.00
10720;BME280;5411;58.386;15.560;2022-12-07T00:46:36;99915.25;;;-4.69;100.00
10720;BME280;5411;58.386;15.560;2022-12-07T00:49:04;99914.53;;;-4.71;100.00
10720;BME280;5411;58.386;15.560;2022-12-07T00:51:38;99912.75;;;-4.71;100.00
10720;BME280;5411;58.386;15.560;2022-12-07T00:54:06;99908.59;;;-4.73;100.00
10720;BME280;5411;58.386;15.560;2022-12-07T00:56:37;99916.84;;;-4.79;100.00
10720;BME280;5411;58.386;15.560;2022-12-07T00:59:06;99911.66;;;-4.79;100.00
10720;BME280;5411;58.386;15.560;2022-12-07T01:01:36;99911.78;;;-4.81;100.00
10720;BME280;5411;58.386;15.560;2022-12-07T01:04:04;99916.50;;;-4.86;100.00
10720;BME280;5411;58.386;15.560;2022-12-07T01:06:33;99924.66;;;-4.90;100.00
10720;BME280;5411;58.386;15.560;2022-12-07T01:09:01;99921.22;;;-4.91;100.00
10720;BME280;5411;58.386;15.560;2022-12-07T01:11:29;99919.56;;;-4.92;100.00
10720;BME280;5411;58.386;15.560;2022-12-07T01:13:59;99923.94;;;-4.92;100.00
10720;BME280;5411;58.386;15.560;2022-12-07T01:16:29;99926.91;;;-4.97;100.00
10720;BME280;5411;58.386;15.560;2022-12-07T01:19:00;99917.66;;;-5.01;100.00
10720;BME280;5411;58.386;15.560;2022-12-07T01:21:30;99923.72;;;-5.00;100.00
10720;BME280;5411;58.386;15.560;2022-12-07T01:24:02;99926.31;;;-5.00;100.00
10720;BME280;5411;58.386;15.560;2022-12-07T01:26:30;99927.25;;;-5.02;100.00
10720;BME280;5411;58.386;15.560;2022-12-07T01:28:58;99929.88;;;-5.02;100.00
10720;BME280;5411;58.386;15.560;2022-12-07T01:31:28;99927.47;;;-5.05;100.00
10720;BME280;5411;58.386;15.560;2022-12-07T01:33:59;99915.16;;;-5.03;100.00
10720;BME280;5411;58.386;15.560;2022-12-07T01:36:29;99922.97;;;-5.03;100.00
10720;BME280;5411;58.386;15.560;2022-12-07T01:39:00;99915.16;;;-5.03;100.00
10720;BME280;5411;58.386;15.560;2022-12-07T01:41:30;99922.03;;;-5.02;100.00
10720;BME280;5411;58.386;15.560;2022-12-07T01:44:21;99913.50;;;-5.04;100.00
10720;BME280;5411;58.386;15.560;2022-12-07T01:46:51;99913.59;;;-5.05;100.00
10720;BME280;5411;58.386;15.560;2022-12-07T01:49:29;99908.53;;;-5.07;100.00
10720;BME280;5411;58.386;15.560;2022-12-07T01:52:13;99908.53;;;-5.07;100.00
10720;BME280;5411;58.386;15.560;2022-12-07T01:54:44;99907.09;;;-5.11;100.00
10720;BME280;5411;58.386;15.560;2022-12-07T01:57:14;99910.03;;;-5.15;100.00
10720;BME280;5411;58.386;15.560;2022-12-07T01:59:45;99899.81;;;-5.18;100.00
10720;BME280;5411;58.386;15.560;2022-12-07T02:02:18;99901.13;;;-5.24;100.00
10720;BME280;5411;58.386;15.560;2022-12-07T02:04:49;99900.31;;;-5.24;100.00
10720;BME280;5411;58.386;15.560;2022-12-07T02:07:18;99896.38;;;-5.30;100.00
10720;BME280;5411;58.386;15.560;2022-12-07T02:09:47;99899.34;;;-5.34;100.00
10720;BME280;5411;58.386;15.560;2022-12-07T02:12:15;99904.66;;;-5.36;100.00
10720;BME280;5411;58.386;15.560;2022-12-07T02:14:44;99894.22;;;-5.36;100.00
10720;BME280;5411;58.386;15.560;2022-12-07T02:17:15;99893.50;;;-5.38;100.00
10720;BME280;5411;58.386;15.560;2022-12-07T02:20:13;99895.16;;;-5.37;100.00
10720;BME280;5411;58.386;15.560;2022-12-07T02:26:19;99898.56;;;-5.48;100.00
10720;BME280;5411;58.386;15.560;2022-12-07T02:29:08;99888.97;;;-5.47;100.00
10720;BME280;5411;58.386;15.560;2022-12-07T02:31:42;99884.47;;;-5.45;100.00
10720;BME280;5411;58.386;15.560;2022-12-07T02:34:17;99883.63;;;-5.46;100.00
10720;BME280;5411;58.386;15.560;2022-12-07T02:36:53;99880.91;;;-5.44;100.00
10720;BME280;5411;58.386;15.560;2022-12-07T02:39:29;99879.03;;;-5.42;100.00
10720;BME280;5411;58.386;15.560;2022-12-07T02:42:03;99884.97;;;-5.40;100.00
10720;BME280;5411;58.386;15.560;2022-12-07T02:44:37;99879.88;;;-5.42;100.00
10720;BME280;5411;58.386;15.560;2022-12-07T02:47:08;99877.38;;;-5.43;100.00
10720;BME280;5411;58.386;15.560;2022-12-07T02:49:38;99866.13;;;-5.44;100.00
10720;BME280;5411;58.386;15.560;2022-12-07T02:52:06;99868.72;;;-5.44;100.00
10720;BME280;5411;58.386;15.560;2022-12-07T02:54:36;99867.88;;;-5.44;100.00
10720;BME280;5411;58.386;15.560;2022-12-07T02:57:18;99866.84;;;-5.42;100.00
10720;BME280;5411;58.386;15.560;2022-12-07T03:00:00;99864.94;;;-5.40;100.00
10720;BME280;5411;58.386;15.560;2022-12-07T03:02:36;99868.38;;;-5.39;100.00
10720;BME280;5411;58.386;15.560;2022-12-07T03:05:15;99859.84;;;-5.41;100.00
10720;BME280;5411;58.386;15.560;2022-12-07T03:07:52;99860.69;;;-5.41;100.00
10720;BME280;5411;58.386;15.560;2022-12-07T03:10:28;99857.84;;;-5.38;100.00
10720;BME280;5411;58.386;15.560;2022-12-07T03:13:06;99849.94;;;-5.36;100.00
10720;BME280;5411;58.386;15.560;2022-12-07T03:15:44;99846.38;;;-5.35;100.00
10720;BME280;5411;58.386;15.560;2022-12-07T03:18:17;99851.59;;;-5.35;100.00
10720;BME280;5411;58.386;15.560;2022-12-07T03:20:48;99845.44;;;-5.34;100.00
10720;BME280;5411;58.386;15.560;2022-12-07T03:23:19;99846.13;;;-5.32;100.00
10720;BME280;5411;58.386;15.560;2022-12-07T03:25:55;99837.25;;;-5.29;100.00
10720;BME280;5411;58.386;15.560;2022-12-07T03:28:31;99837.97;;;-5.27;100.00
10720;BME280;5411;58.386;15.560;2022-12-07T03:31:03;99827.44;;;-5.26;100.00
10720;BME280;5411;58.386;15.560;2022-12-07T03:33:38;99829.94;;;-5.24;100.00
10720;BME280;5411;58.386;15.560;2022-12-07T03:36:11;99824.59;;;-5.23;100.00
10720;BME280;5411;58.386;15.560;2022-12-07T03:38:46;99830.66;;;-5.22;100.00
10720;BME280;5411;58.386;15.560;2022-12-07T03:41:21;99830.53;;;-5.21;100.00
10720;BME280;5411;58.386;15.560;2022-12-07T03:43:56;99833.81;;;-5.19;100.00
10720;BME280;5411;58.386;15.560;2022-12-07T03:46:33;99824.13;;;-5.17;100.00
10720;BME280;5411;58.386;15.560;2022-12-07T03:49:08;99828.28;;;-5.14;100.00
10720;BME280;5411;58.386;15.560;2022-12-07T03:51:43;99831.59;;;-5.12;100.00
10720;BME280;5411;58.386;15.560;2022-12-07T03:54:17;99830.78;;;-5.13;100.00
10720;BME280;5411;58.386;15.560;2022-12-07T03:56:49;99825.56;;;-5.13;100.00
10720;BME280;5411;58.386;15.560;2022-12-07T03:59:18;99811.56;;;-5.12;100.00
10720;BME280;5411;58.386;15.560;2022-12-07T04:01:53;99812.28;;;-5.10;100.00
10720;BME280;5411;58.386;15.560;2022-12-07T04:04:23;99804.34;;;-5.08;100.00
10720;BME280;5411;58.386;15.560;2022-12-07T04:06:51;99798.78;;;-5.04;100.00
10720;BME280;5411;58.386;15.560;2022-12-07T04:09:20;99801.25;;;-5.02;100.00
10720;BME280;5411;58.386;15.560;2022-12-07T04:11:48;99787.16;;;-4.99;100.00
10720;BME280;5411;58.386;15.560;2022-12-07T04:14:16;99784.34;;;-4.96;100.00
10720;BME280;5411;58.386;15.560;2022-12-07T04:16:47;99787.78;;;-4.96;100.00
10720;BME280;5411;58.386;15.560;2022-12-07T04:19:18;99783.38;;;-4.95;100.00
10720;BME280;5411;58.386;15.560;2022-12-07T04:21:47;99786.94;;;-4.96;100.00
10720;BME280;5411;58.386;15.560;2022-12-07T04:24:15;99779.13;;;-4.96;100.00
10720;BME280;5411;58.386;15.560;2022-12-07T04:26:44;99779.13;;;-4.96;100.00
10720;BME280;5411;58.386;15.560;2022-12-07T04:29:13;99775.69;;;-4.97;100.00
10720;BME280;5411;58.386;15.560;2022-12-07T04:31:41;99781.72;;;-4.96;100.00
10720;BME280;5411;58.386;15.560;2022-12-07T04:34:09;99781.00;;;-4.98;100.00
10720;BME280;5411;58.386;15.560;2022-12-07T04:36:39;99789.66;;;-4.98;100.00
10720;BME280;5411;58.386;15.560;2022-12-07T04:39:20;99793.31;;;-5.00;100.00
10720;BME280;5411;58.386;15.560;2022-12-07T04:41:48;99796.06;;;-5.02;100.00
10720;BME280;5411;58.386;15.560;2022-12-07T04:44:22;99790.84;;;-5.02;100.00
10720;BME280;5411;58.386;15.560;2022-12-07T04:46:59;99798.06;;;-5.06;100.00
10720;BME280;5411;58.386;15.560;2022-12-07T04:49:27;99789.66;;;-5.09;100.00
10720;BME280;5411;58.386;15.560;2022-12-07T04:51:56;99790.94;;;-5.15;100.00
10720;BME280;5411;58.386;15.560;2022-12-07T04:54:24;99791.16;;;-5.18;100.00
10720;BME280;5411;58.386;15.560;2022-12-07T04:56:52;99799.13;;;-5.19;100.00
10720;BME280;5411;58.386;15.560;2022-12-07T04:59:27;99802.81;;;-5.22;100.00
10720;BME280;5411;58.386;15.560;2022-12-07T05:02:00;99793.09;;;-5.20;100.00
10720;BME280;5411;58.386;15.560;2022-12-07T05:04:28;99786.22;;;-5.21;100.00
10720;BME280;5411;58.386;15.560;2022-12-07T05:06:58;99789.78;;;-5.22;100.00
10720;BME280;5411;58.386;15.560;2022-12-07T05:09:26;99792.38;;;-5.22;100.00
10720;BME280;5411;58.386;15.560;2022-12-07T05:11:54;99789.66;;;-5.20;100.00
10720;BME280;5411;58.386;15.560;2022-12-07T05:14:23;99794.03;;;-5.21;100.00
10720;BME280;5411;58.386;15.560;2022-12-07T05:16:51;99786.22;;;-5.21;100.00
10720;BME280;5411;58.386;15.560;2022-12-07T05:19:20;99780.19;;;-5.21;100.00
10720;BME280;5411;58.386;15.560;2022-12-07T05:21:48;99780.28;;;-5.23;100.00
10720;BME280;5411;58.386;15.560;2022-12-07T05:24:18;99786.34;;;-5.22;100.00
10720;BME280;5411;58.386;15.560;2022-12-07T05:26:46;99779.34;;;-5.22;100.00
10720;BME280;5411;58.386;15.560;2022-12-07T05:29:15;99778.50;;;-5.22;100.00
10720;BME280;5411;58.386;15.560;2022-12-07T05:31:44;99783.84;;;-5.24;100.00
10720;BME280;5411;58.386;15.560;2022-12-07T05:34:12;99783.72;;;-5.22;100.00
10720;BME280;5411;58.386;15.560;2022-12-07T05:36:40;99787.16;;;-5.22;100.00
10720;BME280;5411;58.386;15.560;2022-12-07T05:39:09;99778.41;;;-5.21;100.00
10720;BME280;5411;58.386;15.560;2022-12-07T05:41:39;99778.28;;;-5.19;100.00
10720;BME280;5411;58.386;15.560;2022-12-07T05:44:25;99781.84;;;-5.20;100.00
10720;BME280;5411;58.386;15.560;2022-12-07T05:46:54;99765.38;;;-5.21;100.00
10720;BME280;5411;58.386;15.560;2022-12-07T05:49:22;99773.19;;;-5.21;100.00
10720;BME280;5411;58.386;15.560;2022-12-07T05:51:50;99767.13;;;-5.21;100.00
10720;BME280;5411;58.386;15.560;2022-12-07T05:54:23;99766.19;;;-5.20;100.00
10720;BME280;5411;58.386;15.560;2022-12-07T05:56:52;99760.72;;;-5.17;100.00
10720;BME280;5411;58.386;15.560;2022-12-07T05:59:21;99758.59;;;-5.12;100.00
10720;BME280;5411;58.386;15.560;2022-12-07T06:01:54;99762.53;;;-5.07;100.00
10720;BME280;5411;58.386;15.560;2022-12-07T06:04:25;99751.59;;;-5.00;100.00
10720;BME280;5411;58.386;15.560;2022-12-07T06:06:54;99754.94;;;-4.98;100.00
10720;BME280;5411;58.386;15.560;2022-12-07T06:09:27;99747.94;;;-4.98;100.00
10720;BME280;5411;58.386;15.560;2022-12-07T06:12:00;99753.16;;;-4.98;100.00
10720;BME280;5411;58.386;15.560;2022-12-07T06:14:46;99761.56;;;-4.94;100.00
10720;BME280;5411;58.386;15.560;2022-12-07T06:17:14;99765.69;;;-4.92;100.00
10720;BME280;5411;58.386;15.560;2022-12-07T06:19:43;99762.16;;;-4.91;100.00
10720;BME280;5411;58.386;15.560;2022-12-07T06:22:12;99768.91;;;-4.88;100.00
10720;BME280;5411;58.386;15.560;2022-12-07T06:24:40;99769.28;;;-4.93;100.00
10720;BME280;5411;58.386;15.560;2022-12-07T06:27:09;99771.88;;;-4.93;100.00
10720;BME280;5411;58.386;15.560;2022-12-07T06:29:37;99775.56;;;-4.95;100.00
10720;BME280;5411;58.386;15.560;2022-12-07T06:32:08;99768.78;;;-4.98;100.00
10720;BME280;5411;58.386;15.560;2022-12-07T06:34:38;99770.81;;;-5.02;100.00
10720;BME280;5411;58.386;15.560;2022-12-07T06:37:06;99768.56;;;-5.06;100.00
10720;BME280;5411;58.386;15.560;2022-12-07T06:39:34;99766.19;;;-5.09;100.00
10720;BME280;5411;58.386;15.560;2022-12-07T06:42:02;99764.66;;;-5.12;100.00
10720;BME280;5411;58.386;15.560;2022-12-07T06:44:32;99774.25;;;-5.12;100.00
10720;BME280;5411;58.386;15.560;2022-12-07T06:47:02;99767.38;;;-5.13;100.00
10720;BME280;5411;58.386;15.560;2022-12-07T06:49:51;99767.59;;;-5.16;100.00
10720;BME280;5411;58.386;15.560;2022-12-07T06:52:22;99767.03;;;-5.20;100.00
10720;BME280;5411;58.386;15.560;2022-12-07T06:54:50;99767.97;;;-5.21;100.00
10720;BME280;5411;58.386;15.560;2022-12-07T06:57:18;99759.44;;;-5.23;100.00
10720;BME280;5411;58.386;15.560;2022-12-07T06:59:48;99762.28;;;-5.26;100.00
10720;BME280;5411;58.386;15.560;2022-12-07T07:02:16;99770.19;;;-5.27;100.00
10720;BME280;5411;58.386;15.560;2022-12-07T07:04:45;99778.97;;;-5.28;100.00
10720;BME280;5411;58.386;15.560;2022-12-07T07:07:13;99779.19;;;-5.31;100.00
10720;BME280;5411;58.386;15.560;2022-12-07T07:09:41;99775.06;;;-5.34;100.00
10720;BME280;5411;58.386;15.560;2022-12-07T07:12:09;99776.00;;;-5.35;100.00
10720;BME280;5411;58.386;15.560;2022-12-07T07:14:37;99774.34;;;-5.36;100.00
10720;BME280;5411;58.386;15.560;2022-12-07T07:17:07;99777.69;;;-5.34;100.00
10720;BME280;5411;58.386;15.560;2022-12-07T07:19:36;99776.72;;;-5.33;100.00
10720;BME280;5411;58.386;15.560;2022-12-07T07:22:04;99782.75;;;-5.32;100.00
10720;BME280;5411;58.386;15.560;2022-12-07T07:24:32;99781.81;;;-5.31;100.00
10720;BME280;5411;58.386;15.560;2022-12-07T07:27:00;99780.84;;;-5.30;100.00
10720;BME280;5411;58.386;15.560;2022-12-07T07:29:32;99781.81;;;-5.31;100.00
10720;BME280;5411;58.386;15.560;2022-12-07T07:32:00;99779.19;;;-5.31;100.00
10720;BME280;5411;58.386;15.560;2022-12-07T07:34:34;99776.59;;;-5.31;100.00
10720;BME280;5411;58.386;15.560;2022-12-07T07:37:02;99772.47;;;-5.34;100.00
10720;BME280;5411;58.386;15.560;2022-12-07T07:39:30;99760.38;;;-5.35;100.00
10720;BME280;5411;58.386;15.560;2022-12-07T07:41:58;99772.69;;;-5.37;100.00
10720;BME280;5411;58.386;15.560;2022-12-07T07:44:26;99768.53;;;-5.40;100.00
10720;BME280;5411;58.386;15.560;2022-12-07T07:47:00;99775.53;;;-5.40;100.00
10720;BME280;5411;58.386;15.560;2022-12-07T07:49:29;99770.19;;;-5.39;100.00
10720;BME280;5411;58.386;15.560;2022-12-07T07:51:59;99774.25;;;-5.34;100.00
10720;BME280;5411;58.386;15.560;2022-12-07T07:54:28;99770.91;;;-5.36;100.00
10720;BME280;5411;58.386;15.560;2022-12-07T07:57:06;99762.97;;;-5.35;100.00
10720;BME280;5411;58.386;15.560;2022-12-07T07:59:37;99768.31;;;-5.36;100.00
10720;BME280;5411;58.386;15.560;2022-12-07T08:02:05;99771.75;;;-5.36;100.00
10720;BME280;5411;58.386;15.560;2022-12-07T08:04:35;99769.03;;;-5.34;100.00
10720;BME280;5411;58.386;15.560;2022-12-07T08:07:05;99770.69;;;-5.33;100.00
10720;BME280;5411;58.386;15.560;2022-12-07T08:09:34;99764.50;;;-5.32;100.00
10720;BME280;5411;58.386;15.560;2022-12-07T08:12:03;99773.03;;;-5.30;100.00
10720;BME280;5411;58.386;15.560;2022-12-07T08:14:32;99767.59;;;-5.27;100.00
10720;BME280;5411;58.386;15.560;2022-12-07T08:17:00;99773.31;;;-5.22;100.00
10720;BME280;5411;58.386;15.560;2022-12-07T08:19:29;99765.09;;;-5.18;100.00
10720;BME280;5411;58.386;15.560;2022-12-07T08:22:04;99757.88;;;-5.14;100.00
10720;BME280;5411;58.386;15.560;2022-12-07T08:24:37;99756.00;;;-5.12;100.00
10720;BME280;5411;58.386;15.560;2022-12-07T08:27:05;99750.66;;;-5.11;100.00
10720;BME280;5411;58.386;15.560;2022-12-07T08:29:33;99753.88;;;-5.07;100.00
10720;BME280;5411;58.386;15.560;2022-12-07T08:32:01;99755.41;;;-5.05;100.00
10720;BME280;5411;58.386;15.560;2022-12-07T08:34:35;99750.91;;;-5.03;100.00
10720;BME280;5411;58.386;15.560;2022-12-07T08:37:13;99752.31;;;-4.98;100.00
10720;BME280;5411;58.386;15.560;2022-12-07T08:39:42;99760.75;;;-4.95;100.00
10720;BME280;5411;58.386;15.560;2022-12-07T08:42:11;99757.75;;;-4.90;100.00
10720;BME280;5411;58.386;15.560;2022-12-07T08:44:39;99761.19;;;-4.90;100.00
10720;BME280;5411;58.386;15.560;2022-12-07T08:47:09;99762.63;;;-4.86;100.00
10720;BME280;5411;58.386;15.560;2022-12-07T08:49:40;99756.34;;;-4.83;100.00
10720;BME280;5411;58.386;15.560;2022-12-07T08:52:09;99759.56;;;-4.80;100.00
10720;BME280;5411;58.386;15.560;2022-12-07T08:54:38;99761.91;;;-4.77;100.00
10720;BME280;5411;58.386;15.560;2022-12-07T08:57:09;99758.94;;;-4.72;100.00
10720;BME280;5411;58.386;15.560;2022-12-07T08:59:37;99755.16;;;-4.68;100.00
10720;BME280;5411;58.386;15.560;2022-12-07T09:02:06;99762.59;;;-4.63;100.00
10720;BME280;5411;58.386;15.560;2022-12-07T09:04:34;99760.56;;;-4.60;100.00
10720;BME280;5411;58.386;15.560;2022-12-07T09:07:03;99763.91;;;-4.58;100.00
10720;BME280;5411;58.386;15.560;2022-12-07T09:09:31;99759.63;;;-4.59;100.00
10720;BME280;5411;58.386;15.560;2022-12-07T09:12:00;99757.63;;;-4.55;100.00
10720;BME280;5411;58.386;15.560;2022-12-07T09:14:29;99752.94;;;-4.52;100.00
10720;BME280;5411;58.386;15.560;2022-12-07T09:17:05;99747.38;;;-4.47;100.00
10720;BME280;5411;58.386;15.560;2022-12-07T09:19:33;99741.22;;;-4.46;100.00
10720;BME280;5411;58.386;15.560;2022-12-07T09:22:02;99745.38;;;-4.44;100.00
10720;BME280;5411;58.386;15.560;2022-12-07T09:24:31;99746.50;;;-4.37;100.00
10720;BME280;5411;58.386;15.560;2022-12-07T09:27:00;99746.28;;;-4.34;100.00
10720;BME280;5411;58.386;15.560;2022-12-07T09:29:30;99739.75;;;-4.28;100.00
10720;BME280;5411;58.386;15.560;2022-12-07T09:31:58;99739.22;;;-4.22;100.00
10720;BME280;5411;58.386;15.560;2022-12-07T09:34:30;99742.31;;;-4.17;100.00
10720;BME280;5411;58.386;15.560;2022-12-07T09:37:03;99739.31;;;-4.12;100.00
10720;BME280;5411;58.386;15.560;2022-12-07T09:39:34;99741.44;;;-4.06;100.00
10720;BME280;5411;58.386;15.560;2022-12-07T09:42:25;99738.19;;;-3.99;100.00
10720;BME280;5411;58.386;15.560;2022-12-07T09:44:57;99720.09;;;-3.90;100.00
10720;BME280;5411;58.386;15.560;2022-12-07T09:47:27;99729.78;;;-3.81;100.00
10720;BME280;5411;58.386;15.560;2022-12-07T09:50:00;99723.25;;;-3.76;100.00
10720;BME280;5411;58.386;15.560;2022-12-07T09:52:32;99723.53;;;-3.69;100.00
10720;BME280;5411;58.386;15.560;2022-12-07T09:55:10;99719.34;;;-3.61;100.00
10720;BME280;5411;58.386;15.560;2022-12-07T09:57:39;99724.16;;;-3.56;100.00
10720;BME280;5411;58.386;15.560;2022-12-07T10:00:12;99714.78;;;-3.59;100.00
10720;BME280;5411;58.386;15.560;2022-12-07T10:02:42;99725.94;;;-3.56;100.00
10720;BME280;5411;58.386;15.560;2022-12-07T10:05:15;99716.06;;;-3.53;100.00
10720;BME280;5411;58.386;15.560;2022-12-07T10:07:50;99715.56;;;-3.47;100.00
10720;BME280;5411;58.386;15.560;2022-12-07T10:10:22;99725.63;;;-3.42;100.00
10720;BME280;5411;58.386;15.560;2022-12-07T10:13:06;99715.75;;;-3.39;100.00
10720;BME280;5411;58.386;15.560;2022-12-07T10:15:57;99716.31;;;-3.35;100.00
10720;BME280;5411;58.386;15.560;2022-12-07T10:18:37;99714.41;;;-3.33;100.00
10720;BME280;5411;58.386;15.560;2022-12-07T10:21:12;99707.66;;;-3.36;100.00
10720;BME280;5411;58.386;15.560;2022-12-07T10:23:43;99704.50;;;-3.30;100.00
10720;BME280;5411;58.386;15.560;2022-12-07T10:26:38;99701.25;;;-3.22;100.00
10720;BME280;5411;58.386;15.560;2022-12-07T10:29:16;99707.97;;;-3.19;100.00
10720;BME280;5411;58.386;15.560;2022-12-07T10:31:51;99704.09;;;-3.25;100.00
10720;BME280;5411;58.386;15.560;2022-12-07T10:34:24;99696.78;;;-3.31;100.00
10720;BME280;5411;58.386;15.560;2022-12-07T10:37:19;99691.28;;;-3.28;100.00
10720;BME280;5411;58.386;15.560;2022-12-07T10:39:49;99694.72;;;-3.28;100.00
10720;BME280;5411;58.386;15.560;2022-12-07T10:42:19;99690.06;;;-3.24;100.00
10720;BME280;5411;58.386;15.560;2022-12-07T10:44:48;99694.63;;;-3.16;100.00
10720;BME280;5411;58.386;15.560;2022-12-07T10:47:25;99695.06;;;-3.11;100.00
10720;BME280;5411;58.386;15.560;2022-12-07T10:50:29;99689.31;;;-3.05;100.00
10720;BME280;5411;58.386;15.560;2022-12-07T10:56:42;99675.72;;;-2.90;100.00
10720;BME280;5411;58.386;15.560;2022-12-07T10:59:38;99670.09;;;-2.85;100.00
10720;BME280;5411;58.386;15.560;2022-12-07T11:02:23;99672.97;;;-2.78;100.00
10720;BME280;5411;58.386;15.560;2022-12-07T11:05:02;99668.47;;;-2.67;100.00
10720;BME280;5411;58.386;15.560;2022-12-07T11:07:41;99673.16;;;-2.61;100.00
10720;BME280;5411;58.386;15.560;2022-12-07T11:10:16;99669.44;;;-2.58;100.00
10720;BME280;5411;58.386;15.560;2022-12-07T11:12:57;99665.59;;;-2.54;100.00
10720;BME280;5411;58.386;15.560;2022-12-07T11:15:36;99671.09;;;-2.47;100.00
10720;BME280;5411;58.386;15.560;2022-12-07T11:18:17;99668.63;;;-2.49;100.00
10720;BME280;5411;58.386;15.560;2022-12-07T11:20:54;99666.97;;;-2.50;100.00
10720;BME280;5411;58.386;15.560;2022-12-07T11:23:34;99669.56;;;-2.50;100.00
10720;BME280;5411;58.386;15.560;2022-12-07T11:26:14;99659.09;;;-2.50;100.00
10720;BME280;5411;58.386;15.560;2022-12-07T11:28:59;99661.47;;;-2.47;100.00
10720;BME280;5411;58.386;15.560;2022-12-07T11:31:48;99669.31;;;-2.47;100.00
10720;BME280;5411;58.386;15.560;2022-12-07T11:34:27;99661.19;;;-2.44;100.00
10720;BME280;5411;58.386;15.560;2022-12-07T11:37:01;99660.09;;;-2.41;100.00
10720;BME280;5411;58.386;15.560;2022-12-07T11:39:34;99657.34;;;-2.40;100.00
10720;BME280;5411;58.386;15.560;2022-12-07T11:42:06;99664.50;;;-2.42;100.00
10720;BME280;5411;58.386;15.560;2022-12-07T11:44:39;99667.38;;;-2.45;100.00
10720;BME280;5411;58.386;15.560;2022-12-07T11:47:17;99666.00;;;-2.49;100.00
10720;BME280;5411;58.386;15.560;2022-12-07T11:50:07;99659.09;;;-2.50;100.00
10720;BME280;5411;58.386;15.560;2022-12-07T11:52:46;99654.16;;;-2.43;100.00
10720;BME280;5411;58.386;15.560;2022-12-07T11:55:19;99639.00;;;-2.40;100.00
10720;BME280;5411;58.386;15.560;2022-12-07T11:57:52;99635.56;;;-2.31;100.00
10720;BME280;5411;58.386;15.560;2022-12-07T12:00:23;99644.22;;;-2.21;100.00
10720;BME280;5411;58.386;15.560;2022-12-07T12:02:55;99643.41;;;-2.21;100.00
10720;BME280;5411;58.386;15.560;2022-12-07T12:05:29;99633.31;;;-2.26;100.00
10720;BME280;5411;58.386;15.560;2022-12-07T12:08:06;99632.66;;;-2.28;100.00
10720;BME280;5411;58.386;15.560;2022-12-07T12:11:05;99646.59;;;-2.27;100.00
10720;BME280;5411;58.386;15.560;2022-12-07T12:13:59;99633.31;;;-2.26;100.00
10720;BME280;5411;58.386;15.560;2022-12-07T12:17:06;99640.66;;;-2.29;100.00
10720;BME280;5411;58.386;15.560;2022-12-07T12:19:41;99630.88;;;-2.27;100.00
10720;BME280;5411;58.386;15.560;2022-12-07T12:22:14;99626.47;;;-2.27;100.00
10720;BME280;5411;58.386;15.560;2022-12-07T12:24:44;99624.09;;;-2.20;100.00
10720;BME280;5411;58.386;15.560;2022-12-07T12:27:23;99616.38;;;-2.22;100.00
10720;BME280;5411;58.386;15.560;2022-12-07T12:30:01;99623.97;;;-2.19;100.00
10720;BME280;5411;58.386;15.560;2022-12-07T12:32:36;99618.44;;;-2.16;100.00
10720;BME280;5411;58.386;15.560;2022-12-07T12:35:28;99611.56;;;-2.17;100.00
10720;BME280;5411;58.386;15.560;2022-12-07T12:38:27;99614.69;;;-2.13;100.00
10720;BME280;5411;58.386;15.560;2022-12-07T12:40:56;99619.66;;;-2.10;100.00
10720;BME280;5411;58.386;15.560;2022-12-07T12:43:48;99619.53;;;-2.08;100.00
10720;BME280;5411;58.386;15.560;2022-12-07T12:46:48;99611.53;;;-2.07;100.00
10720;BME280;5411;58.386;15.560;2022-12-07T12:49:38;99605.72;;;-2.10;100.00
10720;BME280;5411;58.386;15.560;2022-12-07T12:58:22;99609.88;;;-2.08;100.00
10720;BME280;5411;58.386;15.560;2022-12-07T13:01:38;99602.94;;;-1.99;100.00
10720;BME280;5411;58.386;15.560;2022-12-07T13:04:36;99596.59;;;-1.97;100.00
10720;BME280;5411;58.386;15.560;2022-12-07T13:10:23;99601.56;;;-1.94;100.00
10720;BME280;5411;58.386;15.560;2022-12-07T13:12:56;99601.97;;;-1.89;100.00
10720;BME280;5411;58.386;15.560;2022-12-07T13:15:36;99596.88;;;-1.90;100.00
10720;BME280;5411;58.386;15.560;2022-12-07T13:18:34;99594.53;;;-1.93;100.00
10720;BME280;5411;58.386;15.560;2022-12-07T13:21:41;99590.66;;;-1.99;100.00
10720;BME280;5411;58.386;15.560;2022-12-07T13:24:21;99593.00;;;-1.96;100.00
10720;BME280;5411;58.386;15.560;2022-12-07T13:26:56;99598.53;;;-1.99;100.00
10720;BME280;5411;58.386;15.560;2022-12-07T13:29:25;99603.78;;;-1.99;100.00
10720;BME280;5411;58.386;15.560;2022-12-07T13:31:55;99600.03;;;-1.96;100.00
10720;BME280;5411;58.386;15.560;2022-12-07T13:34:31;99595.50;;;-1.94;100.00
10720;BME280;5411;58.386;15.560;2022-12-07T13:37:01;99592.06;;;-1.95;100.00
10720;BME280;5411;58.386;15.560;2022-12-07T13:39:32;99594.81;;;-1.96;100.00